sensor_id;sensor_type;location;lat;lon;timestamp;pressure;altitude;pressure_sealevel;temperature;humidity
75053;BME280;63630;50.142;14.076;2022-09-27T00:00:32;95370.25;;;18.71;64.29
75053;BME280;63630;50.142;14.076;2022-09-27T00:02:57;95367.53;;;18.71;64.81
75053;BME280;63630;50.142;14.076;2022-09-27T00:05:22;95367.63;;;18.75;64.93
75053;BME280;63630;50.142;14.076;2022-09-27T00:07:48;95351.41;;;18.75;65.10
75053;BME280;63630;50.142;14.076;2022-09-27T00:10:16;95342.88;;;18.73;65.38
75053;BME280;63630;50.142;14.076;2022-09-27T00:12:41;95347.22;;;18.77;65.83
75053;BME280;63630;50.142;14.076;2022-09-27T00:15:10;95340.59;;;18.75;65.93
75053;BME280;63630;50.142;14.076;2022-09-27T00:17:39;95330.16;;;18.73;66.23
75053;BME280;63630;50.142;14.076;2022-09-27T00:20:08;95330.91;;;18.74;66.47
75053;BME280;63630;50.142;14.076;2022-09-27T00:22:33;95318.91;;;18.71;66.43
75053;BME280;63630;50.142;14.076;2022-09-27T00:24:59;95319.63;;;18.68;66.60
75053;BME280;63630;50.142;14.076;2022-09-27T00:27:29;95321.13;;;18.65;66.78
75053;BME280;63630;50.142;14.076;2022-09-27T00:29:55;95316.13;;;18.64;66.98
75053;BME280;63630;50.142;14.076;2022-09-27T00:32:25;95307.53;;;18.58;67.12
75053;BME280;63630;50.142;14.076;2022-09-27T00:34:50;95299.44;;;18.58;67.32
75053;BME280;63630;50.142;14.076;2022-09-27T00:37:15;95298.66;;;18.58;67.23
75053;BME280;63630;50.142;14.076;2022-09-27T00:39:41;95292.06;;;18.55;67.20
75053;BME280;63630;50.142;14.076;2022-09-27T00:42:11;95295.09;;;18.54;67.63
75053;BME280;63630;50.142;14.076;2022-09-27T00:47:24;95295.84;;;18.51;67.65
75053;BME280;63630;50.142;14.076;2022-09-27T00:52:44;95273.06;;;18.48;67.66
75053;BME280;63630;50.142;14.076;2022-09-27T00:55:19;95274.19;;;18.47;67.70
75053;BME280;63630;50.142;14.076;2022-09-27T00:57:47;95271.09;;;18.45;67.70
75053;BME280;63630;50.142;14.076;2022-09-27T01:00:15;95258.31;;;18.42;67.80
75053;BME280;63630;50.142;14.076;2022-09-27T01:02:43;95258.31;;;18.42;67.90
75053;BME280;63630;50.142;14.076;2022-09-27T01:05:14;95263.28;;;18.40;68.21
75053;BME280;63630;50.142;14.076;2022-09-27T01:07:44;95263.28;;;18.40;68.17
75053;BME280;63630;50.142;14.076;2022-09-27T01:10:13;95261.72;;;18.39;68.13
75053;BME280;63630;50.142;14.076;2022-09-27T01:13:10;95252.06;;;18.38;68.19
75053;BME280;63630;50.142;14.076;2022-09-27T01:18:47;95233.09;;;18.34;68.45
75053;BME280;63630;50.142;14.076;2022-09-27T01:35:36;95214.09;;;18.27;68.79
75053;BME280;63630;50.142;14.076;2022-09-27T01:40:53;95202.09;;;18.24;69.13
75053;BME280;63630;50.142;14.076;2022-09-27T01:43:31;95202.50;;;18.23;69.20
75053;BME280;63630;50.142;14.076;2022-09-27T01:46:03;95195.53;;;18.22;69.15
75053;BME280;63630;50.142;14.076;2022-09-27T01:48:39;95196.66;;;18.21;69.04
75053;BME280;63630;50.142;14.076;2022-09-27T01:51:09;95188.56;;;18.21;69.18
75053;BME280;63630;50.142;14.076;2022-09-27T01:53:39;95175.06;;;18.21;69.30
75053;BME280;63630;50.142;14.076;2022-09-27T01:56:10;95169.28;;;18.19;69.23
75053;BME280;63630;50.142;14.076;2022-09-27T01:58:45;95173.09;;;18.18;69.05
75053;BME280;63630;50.142;14.076;2022-09-27T02:01:14;95173.53;;;18.20;68.88
75053;BME280;63630;50.142;14.076;2022-09-27T02:03:49;95170.81;;;18.20;68.98
75053;BME280;63630;50.142;14.076;2022-09-27T02:06:18;95170.06;;;18.19;68.72
75053;BME280;63630;50.142;14.076;2022-09-27T02:08:54;95162.72;;;18.20;68.81
75053;BME280;63630;50.142;14.076;2022-09-27T02:11:23;95156.56;;;18.19;68.46
75053;BME280;63630;50.142;14.076;2022-09-27T02:14:06;95153.84;;;18.19;68.59
75053;BME280;63630;50.142;14.076;2022-09-27T02:22:37;95133.41;;;18.18;68.49
75053;BME280;63630;50.142;14.076;2022-09-27T02:27:50;95130.72;;;18.18;68.75
75053;BME280;63630;50.142;14.076;2022-09-27T02:30:18;95129.13;;;18.17;68.62
75053;BME280;63630;50.142;14.076;2022-09-27T02:32:46;95109.84;;;18.15;68.84
75053;BME280;63630;50.142;14.076;2022-09-27T02:35:17;95114.09;;;18.16;68.83
75053;BME280;63630;50.142;14.076;2022-09-27T02:37:43;95113.31;;;18.16;69.01
75053;BME280;63630;50.142;14.076;2022-09-27T02:40:09;95099.84;;;18.16;69.24
75053;BME280;63630;50.142;14.076;2022-09-27T02:42:34;95102.50;;;18.12;68.94
75053;BME280;63630;50.142;14.076;2022-09-27T02:45:01;95098.28;;;18.15;69.29
75053;BME280;63630;50.142;14.076;2022-09-27T02:55:47;95077.44;;;18.12;69.65
75053;BME280;63630;50.142;14.076;2022-09-27T03:01:37;95075.13;;;18.14;69.74
75053;BME280;63630;50.142;14.076;2022-09-27T03:06:40;95081.66;;;18.13;69.73
75053;BME280;63630;50.142;14.076;2022-09-27T03:09:43;95068.53;;;18.11;69.84
75053;BME280;63630;50.142;14.076;2022-09-27T03:12:13;95076.28;;;18.13;69.90
75053;BME280;63630;50.142;14.076;2022-09-27T03:14:44;95068.53;;;18.11;70.37
75053;BME280;63630;50.142;14.076;2022-09-27T03:17:12;95060.38;;;18.08;69.81
75053;BME280;63630;50.142;14.076;2022-09-27T03:19:40;95071.22;;;18.11;69.95
75053;BME280;63630;50.142;14.076;2022-09-27T03:22:08;95061.22;;;18.12;70.00
75053;BME280;63630;50.142;14.076;2022-09-27T03:24:33;95056.19;;;18.10;70.00
75053;BME280;63630;50.142;14.076;2022-09-27T03:27:00;95066.22;;;18.10;69.91
75053;BME280;63630;50.142;14.076;2022-09-27T03:29:27;95060.81;;;18.10;70.09
75053;BME280;63630;50.142;14.076;2022-09-27T03:31:55;95050.78;;;18.10;69.85
75053;BME280;63630;50.142;14.076;2022-09-27T03:34:20;95053.88;;;18.09;70.08
75053;BME280;63630;50.142;14.076;2022-09-27T03:36:48;95051.16;;;18.09;69.86
75053;BME280;63630;50.142;14.076;2022-09-27T03:39:14;95052.72;;;18.10;69.95
75053;BME280;63630;50.142;14.076;2022-09-27T03:41:39;95047.66;;;18.08;69.70
75053;BME280;63630;50.142;14.076;2022-09-27T03:44:05;95051.16;;;18.09;69.85
75053;BME280;63630;50.142;14.076;2022-09-27T03:46:31;95034.94;;;18.05;69.81
75053;BME280;63630;50.142;14.076;2022-09-27T03:48:56;95041.50;;;18.08;70.02
75053;BME280;63630;50.142;14.076;2022-09-27T03:51:21;95034.56;;;18.07;69.86
75053;BME280;63630;50.142;14.076;2022-09-27T03:53:46;95034.56;;;18.07;70.00
75053;BME280;63630;50.142;14.076;2022-09-27T03:56:12;95026.47;;;18.07;70.01
75053;BME280;63630;50.142;14.076;2022-09-27T03:58:38;95028.38;;;18.06;69.77
75053;BME280;63630;50.142;14.076;2022-09-27T04:01:07;95032.63;;;18.07;69.77
75053;BME280;63630;50.142;14.076;2022-09-27T04:03:32;95029.13;;;18.03;69.93
75053;BME280;63630;50.142;14.076;2022-09-27T04:06:01;95017.16;;;18.04;69.74
75053;BME280;63630;50.142;14.076;2022-09-27T04:08:27;95019.53;;;18.06;69.68
75053;BME280;63630;50.142;14.076;2022-09-27T04:10:52;95010.66;;;18.05;69.52
75053;BME280;63630;50.142;14.076;2022-09-27T04:13:20;94986.63;;;17.96;69.70
75053;BME280;63630;50.142;14.076;2022-09-27T04:15:46;94998.66;;;18.02;69.89
75053;BME280;63630;50.142;14.076;2022-09-27T04:18:14;94998.25;;;18.00;69.79
75053;BME280;63630;50.142;14.076;2022-09-27T04:20:39;94995.53;;;18.00;70.33
75053;BME280;63630;50.142;14.076;2022-09-27T04:23:05;95007.13;;;18.01;70.15
75053;BME280;63630;50.142;14.076;2022-09-27T04:25:30;95005.56;;;18.00;69.99
75053;BME280;63630;50.142;14.076;2022-09-27T04:27:59;95010.19;;;17.99;70.43
75053;BME280;63630;50.142;14.076;2022-09-27T04:30:30;95001.31;;;17.99;70.12
75053;BME280;63630;50.142;14.076;2022-09-27T04:32:56;95003.25;;;17.98;70.12
75053;BME280;63630;50.142;14.076;2022-09-27T04:35:22;95006.28;;;17.97;70.15
75053;BME280;63630;50.142;14.076;2022-09-27T04:38:08;95004.34;;;17.94;70.02
75053;BME280;63630;50.142;14.076;2022-09-27T04:40:37;95003.19;;;17.95;70.02
75053;BME280;63630;50.142;14.076;2022-09-27T04:43:02;95001.63;;;17.94;69.94
75053;BME280;63630;50.142;14.076;2022-09-27T04:45:28;94998.16;;;17.93;69.83
75053;BME280;63630;50.142;14.076;2022-09-27T04:47:56;95006.25;;;17.93;69.81
75053;BME280;63630;50.142;14.076;2022-09-27T04:50:24;94997.78;;;17.95;70.20
75053;BME280;63630;50.142;14.076;2022-09-27T04:52:52;95002.81;;;17.96;69.63
75053;BME280;63630;50.142;14.076;2022-09-27T04:55:19;95002.81;;;17.96;68.20
75053;BME280;63630;50.142;14.076;2022-09-27T04:57:50;95006.69;;;17.95;68.74
75053;BME280;63630;50.142;14.076;2022-09-27T05:00:18;95006.28;;;17.97;67.56
75053;BME280;63630;50.142;14.076;2022-09-27T05:02:44;95001.28;;;17.95;65.70
75053;BME280;63630;50.142;14.076;2022-09-27T05:05:13;95005.88;;;17.95;64.75
75053;BME280;63630;50.142;14.076;2022-09-27T05:07:39;95009.31;;;17.92;64.80
75053;BME280;63630;50.142;14.076;2022-09-27T05:10:05;95009.31;;;17.92;64.80
75053;BME280;63630;50.142;14.076;2022-09-27T05:12:33;95012.00;;;17.92;64.77
75053;BME280;63630;50.142;14.076;2022-09-27T05:14:59;95010.47;;;17.91;64.44
75053;BME280;63630;50.142;14.076;2022-09-27T05:17:25;95013.16;;;17.91;64.38
75053;BME280;63630;50.142;14.076;2022-09-27T05:19:52;95011.63;;;17.90;64.47
75053;BME280;63630;50.142;14.076;2022-09-27T05:22:20;95012.75;;;17.89;64.48
75053;BME280;63630;50.142;14.076;2022-09-27T05:24:46;95011.56;;;17.86;64.31
75053;BME280;63630;50.142;14.076;2022-09-27T05:27:14;95015.81;;;17.87;64.68
75053;BME280;63630;50.142;14.076;2022-09-27T05:29:42;95010.00;;;17.85;64.62
75053;BME280;63630;50.142;14.076;2022-09-27T05:32:08;95008.88;;;17.86;64.40
75053;BME280;63630;50.142;14.076;2022-09-27T05:34:33;95003.44;;;17.83;64.31
75053;BME280;63630;50.142;14.076;2022-09-27T05:37:00;95006.91;;;17.83;64.67
75053;BME280;63630;50.142;14.076;2022-09-27T05:39:26;95001.84;;;17.82;64.42
75053;BME280;63630;50.142;14.076;2022-09-27T05:41:54;95003.38;;;17.79;64.46
75053;BME280;63630;50.142;14.076;2022-09-27T05:44:23;94999.53;;;17.80;64.35
75053;BME280;63630;50.142;14.076;2022-09-27T05:46:54;95002.25;;;17.80;64.50
75053;BME280;63630;50.142;14.076;2022-09-27T05:49:20;95001.03;;;17.77;64.61
75053;BME280;63630;50.142;14.076;2022-09-27T05:51:45;94997.91;;;17.75;64.48
75053;BME280;63630;50.142;14.076;2022-09-27T05:54:11;95002.97;;;17.77;64.60
75053;BME280;63630;50.142;14.076;2022-09-27T05:56:41;94997.91;;;17.75;64.34
75053;BME280;63630;50.142;14.076;2022-09-27T05:59:07;94995.16;;;17.72;64.48
75053;BME280;63630;50.142;14.076;2022-09-27T06:01:34;95001.34;;;17.72;64.76
75053;BME280;63630;50.142;14.076;2022-09-27T06:04:03;95002.13;;;17.73;64.94
75053;BME280;63630;50.142;14.076;2022-09-27T06:06:29;94995.88;;;17.69;64.55
75053;BME280;63630;50.142;14.076;2022-09-27T06:08:54;95003.19;;;17.68;64.99
75053;BME280;63630;50.142;14.076;2022-09-27T06:11:20;94994.75;;;17.70;65.38
75053;BME280;63630;50.142;14.076;2022-09-27T06:13:45;94995.50;;;17.67;65.50
75053;BME280;63630;50.142;14.076;2022-09-27T06:16:11;95003.19;;;17.68;66.22
75053;BME280;63630;50.142;14.076;2022-09-27T06:18:37;95003.16;;;17.65;66.29
75053;BME280;63630;50.142;14.076;2022-09-27T06:21:03;94998.53;;;17.65;66.51
75053;BME280;63630;50.142;14.076;2022-09-27T06:23:29;95006.63;;;17.65;66.27
75053;BME280;63630;50.142;14.076;2022-09-27T06:26:06;95007.78;;;17.64;66.21
75053;BME280;63630;50.142;14.076;2022-09-27T06:28:32;94999.69;;;17.64;66.17
75053;BME280;63630;50.142;14.076;2022-09-27T06:31:01;95007.00;;;17.64;66.25
75053;BME280;63630;50.142;14.076;2022-09-27T06:33:27;95007.78;;;17.64;66.28
75053;BME280;63630;50.142;14.076;2022-09-27T06:35:53;95003.53;;;17.63;66.37
75053;BME280;63630;50.142;14.076;2022-09-27T06:38:18;95004.31;;;17.64;66.28
75053;BME280;63630;50.142;14.076;2022-09-27T06:40:46;95004.31;;;17.64;66.23
75053;BME280;63630;50.142;14.076;2022-09-27T06:43:14;95005.06;;;17.64;66.14
75053;BME280;63630;50.142;14.076;2022-09-27T06:45:42;95017.41;;;17.65;66.28
75053;BME280;63630;50.142;14.076;2022-09-27T06:48:09;95015.09;;;17.64;66.20
75053;BME280;63630;50.142;14.076;2022-09-27T06:50:36;95016.63;;;17.65;66.23
75053;BME280;63630;50.142;14.076;2022-09-27T06:53:05;95020.47;;;17.64;66.25
75053;BME280;63630;50.142;14.076;2022-09-27T06:55:36;95012.41;;;17.64;66.31
75053;BME280;63630;50.142;14.076;2022-09-27T06:58:04;95020.47;;;17.64;66.38
75053;BME280;63630;50.142;14.076;2022-09-27T07:00:50;95016.25;;;17.63;66.19
75053;BME280;63630;50.142;14.076;2022-09-27T07:03:16;95014.31;;;17.63;66.42
75053;BME280;63630;50.142;14.076;2022-09-27T07:05:41;95015.50;;;17.66;66.35
75053;BME280;63630;50.142;14.076;2022-09-27T07:08:09;94996.63;;;17.66;66.31
75053;BME280;63630;50.142;14.076;2022-09-27T07:15:46;94995.56;;;17.74;65.66
75053;BME280;63630;50.142;14.076;2022-09-27T07:18:11;94994.88;;;17.77;65.42
75053;BME280;63630;50.142;14.076;2022-09-27T07:20:39;94989.47;;;17.77;65.76
75053;BME280;63630;50.142;14.076;2022-09-27T07:23:06;95000.31;;;17.81;65.32
75053;BME280;63630;50.142;14.076;2022-09-27T07:25:34;95001.84;;;17.82;65.59
75053;BME280;63630;50.142;14.076;2022-09-27T07:28:01;94999.16;;;17.82;65.32
75053;BME280;63630;50.142;14.076;2022-09-27T07:30:27;95001.84;;;17.82;65.34
75053;BME280;63630;50.142;14.076;2022-09-27T07:33:00;95001.13;;;17.85;65.20
75053;BME280;63630;50.142;14.076;2022-09-27T07:35:26;95000.34;;;17.84;65.19
75053;BME280;63630;50.142;14.076;2022-09-27T07:37:52;95012.69;;;17.85;64.97
75053;BME280;63630;50.142;14.076;2022-09-27T07:40:18;95013.50;;;17.86;65.10
75053;BME280;63630;50.142;14.076;2022-09-27T07:42:46;95018.09;;;17.85;65.10
75053;BME280;63630;50.142;14.076;2022-09-27T07:45:14;95007.25;;;17.82;65.04
75053;BME280;63630;50.142;14.076;2022-09-27T07:47:41;95021.59;;;17.86;65.10
75053;BME280;63630;50.142;14.076;2022-09-27T07:50:08;95020.00;;;17.85;65.03
75053;BME280;63630;50.142;14.076;2022-09-27T07:52:44;95023.09;;;17.83;65.27
75053;BME280;63630;50.142;14.076;2022-09-27T07:55:11;95016.97;;;17.86;65.30
75053;BME280;63630;50.142;14.076;2022-09-27T07:57:39;95021.16;;;17.84;65.14
75053;BME280;63630;50.142;14.076;2022-09-27T08:00:12;95034.69;;;17.87;64.96
75053;BME280;63630;50.142;14.076;2022-09-27T08:02:39;95031.22;;;17.87;65.10
75053;BME280;63630;50.142;14.076;2022-09-27T08:05:11;95025.41;;;17.85;64.96
75053;BME280;63630;50.142;14.076;2022-09-27T08:07:39;95027.38;;;17.88;64.95
75053;BME280;63630;50.142;14.076;2022-09-27T08:10:06;95030.06;;;17.88;64.88
75053;BME280;63630;50.142;14.076;2022-09-27T08:12:33;95026.59;;;17.87;65.07
75053;BME280;63630;50.142;14.076;2022-09-27T08:15:01;95025.81;;;17.87;64.96
75053;BME280;63630;50.142;14.076;2022-09-27T08:17:29;95025.06;;;17.86;64.53
75053;BME280;63630;50.142;14.076;2022-09-27T08:19:55;95025.81;;;17.87;64.94
75053;BME280;63630;50.142;14.076;2022-09-27T08:22:21;95028.88;;;17.85;64.54
75053;BME280;63630;50.142;14.076;2022-09-27T08:24:49;95037.38;;;17.87;64.74
75053;BME280;63630;50.142;14.076;2022-09-27T08:27:15;95048.19;;;17.87;65.01
75053;BME280;63630;50.142;14.076;2022-09-27T08:29:41;95041.25;;;17.86;64.84
75053;BME280;63630;50.142;14.076;2022-09-27T08:32:10;95053.56;;;17.87;64.77
75053;BME280;63630;50.142;14.076;2022-09-27T08:34:41;95050.09;;;17.87;64.75
75053;BME280;63630;50.142;14.076;2022-09-27T08:37:08;95052.81;;;17.87;64.52
75053;BME280;63630;50.142;14.076;2022-09-27T08:39:34;95052.03;;;17.86;64.89
75053;BME280;63630;50.142;14.076;2022-09-27T08:42:37;95060.91;;;17.87;64.89
75053;BME280;63630;50.142;14.076;2022-09-27T08:45:21;95061.66;;;17.87;64.69
75053;BME280;63630;50.142;14.076;2022-09-27T08:47:57;95065.13;;;17.88;64.83
75053;BME280;63630;50.142;14.076;2022-09-27T08:50:29;95062.41;;;17.84;64.71
75053;BME280;63630;50.142;14.076;2022-09-27T08:53:21;95069.00;;;17.87;64.69
75053;BME280;63630;50.142;14.076;2022-09-27T08:55:53;95063.94;;;17.85;64.76
75053;BME280;63630;50.142;14.076;2022-09-27T08:58:25;95067.44;;;17.86;64.79
75053;BME280;63630;50.142;14.076;2022-09-27T09:00:54;95061.25;;;17.85;64.76
75053;BME280;63630;50.142;14.076;2022-09-27T09:03:23;95057.78;;;17.85;64.87
75053;BME280;63630;50.142;14.076;2022-09-27T09:06:27;95059.69;;;17.84;64.88
75053;BME280;63630;50.142;14.076;2022-09-27T09:15:35;95066.25;;;17.83;64.73
75053;BME280;63630;50.142;14.076;2022-09-27T09:27:15;95059.66;;;17.81;64.71
75053;BME280;63630;50.142;14.076;2022-09-27T09:35:05;95066.97;;;17.80;64.83
75053;BME280;63630;50.142;14.076;2022-09-27T09:37:38;95066.97;;;17.80;64.87
75053;BME280;63630;50.142;14.076;2022-09-27T09:43:09;95063.50;;;17.80;64.88
75053;BME280;63630;50.142;14.076;2022-09-27T09:45:35;95061.16;;;17.78;64.69
75053;BME280;63630;50.142;14.076;2022-09-27T09:50:58;95048.44;;;17.78;64.75
75053;BME280;63630;50.142;14.076;2022-09-27T09:53:35;95054.25;;;17.81;64.51
75053;BME280;63630;50.142;14.076;2022-09-27T09:56:26;95060.44;;;17.81;64.62
75053;BME280;63630;50.142;14.076;2022-09-27T09:59:02;95058.50;;;17.82;64.56
75053;BME280;63630;50.142;14.076;2022-09-27T10:01:46;95054.25;;;17.81;64.53
75053;BME280;63630;50.142;14.076;2022-09-27T10:04:32;95052.34;;;17.81;64.30
75053;BME280;63630;50.142;14.076;2022-09-27T10:06:59;95055.03;;;17.81;64.34
75053;BME280;63630;50.142;14.076;2022-09-27T10:09:26;95062.41;;;17.84;64.22
75053;BME280;63630;50.142;14.076;2022-09-27T10:11:52;95060.06;;;17.83;64.09
75053;BME280;63630;50.142;14.076;2022-09-27T10:14:19;95050.84;;;17.84;64.30
75053;BME280;63630;50.142;14.076;2022-09-27T10:16:48;95053.91;;;17.82;64.39
75053;BME280;63630;50.142;14.076;2022-09-27T10:19:20;95050.06;;;17.83;64.00
75053;BME280;63630;50.142;14.076;2022-09-27T10:21:51;95060.84;;;17.83;64.05
75053;BME280;63630;50.142;14.076;2022-09-27T10:24:19;95062.78;;;17.83;64.15
75053;BME280;63630;50.142;14.076;2022-09-27T10:26:46;95058.94;;;17.84;64.07
75053;BME280;63630;50.142;14.076;2022-09-27T10:31:45;95055.47;;;17.83;64.22
75053;BME280;63630;50.142;14.076;2022-09-27T10:39:39;95043.91;;;17.83;63.95
75053;BME280;63630;50.142;14.076;2022-09-27T10:44:57;95047.38;;;17.83;64.16
75053;BME280;63630;50.142;14.076;2022-09-27T10:47:25;95045.06;;;17.85;64.06
75053;BME280;63630;50.142;14.076;2022-09-27T10:49:51;95043.50;;;17.84;64.14
75053;BME280;63630;50.142;14.076;2022-09-27T10:52:29;95038.91;;;17.85;64.14
75053;BME280;63630;50.142;14.076;2022-09-27T10:57:23;95041.59;;;17.85;63.71
75053;BME280;63630;50.142;14.076;2022-09-27T10:59:59;95043.94;;;17.86;63.87
75053;BME280;63630;50.142;14.076;2022-09-27T11:02:36;95042.00;;;17.87;63.47
75053;BME280;63630;50.142;14.076;2022-09-27T11:07:54;95051.25;;;17.86;63.69
75053;BME280;63630;50.142;14.076;2022-09-27T11:10:27;95063.59;;;17.87;63.76
75053;BME280;63630;50.142;14.076;2022-09-27T11:18:43;95069.75;;;17.87;63.81
75053;BME280;63630;50.142;14.076;2022-09-27T11:21:25;95068.22;;;17.86;63.76
75053;BME280;63630;50.142;14.076;2022-09-27T11:32:33;95042.75;;;17.84;63.35
75053;BME280;63630;50.142;14.076;2022-09-27T11:35:29;95055.50;;;17.87;63.60
75053;BME280;63630;50.142;14.076;2022-09-27T11:41:06;95070.53;;;17.88;63.59
75053;BME280;63630;50.142;14.076;2022-09-27T11:46:34;95065.91;;;17.88;63.38
75053;BME280;63630;50.142;14.076;2022-09-27T12:11:02;95074.38;;;17.87;63.38
75053;BME280;63630;50.142;14.076;2022-09-27T12:13:40;95077.84;;;17.87;63.19
75053;BME280;63630;50.142;14.076;2022-09-27T12:16:11;95070.13;;;17.86;63.49
75053;BME280;63630;50.142;14.076;2022-09-27T12:18:42;95075.16;;;17.87;63.35
75053;BME280;63630;50.142;14.076;2022-09-27T12:21:09;95076.69;;;17.88;63.28
75053;BME280;63630;50.142;14.076;2022-09-27T12:23:41;95076.69;;;17.88;63.35
75053;BME280;63630;50.142;14.076;2022-09-27T12:26:35;95077.84;;;17.87;63.43
75053;BME280;63630;50.142;14.076;2022-09-27T12:29:19;95070.91;;;17.86;63.43
75053;BME280;63630;50.142;14.076;2022-09-27T12:31:55;95080.56;;;17.87;63.31
75053;BME280;63630;50.142;14.076;2022-09-27T12:36:59;95084.41;;;17.86;63.28
75053;BME280;63630;50.142;14.076;2022-09-27T12:42:04;95084.75;;;17.85;63.32
75053;BME280;63630;50.142;14.076;2022-09-27T12:44:37;95087.09;;;17.86;63.38
75053;BME280;63630;50.142;14.076;2022-09-27T12:52:05;95092.06;;;17.84;63.46
75053;BME280;63630;50.142;14.076;2022-09-27T13:08:13;95112.09;;;17.83;63.39
75053;BME280;63630;50.142;14.076;2022-09-27T13:13:55;95112.44;;;17.82;63.67
75053;BME280;63630;50.142;14.076;2022-09-27T13:16:24;95119.00;;;17.81;63.52
75053;BME280;63630;50.142;14.076;2022-09-27T13:18:56;95122.47;;;17.81;63.63
75053;BME280;63630;50.142;14.076;2022-09-27T13:24:29;95121.34;;;17.82;63.55
75053;BME280;63630;50.142;14.076;2022-09-27T13:26:54;95118.28;;;17.84;63.53
75053;BME280;63630;50.142;14.076;2022-09-27T13:29:23;95114.03;;;17.83;63.45
75053;BME280;63630;50.142;14.076;2022-09-27T13:34:36;95119.41;;;17.83;63.48
75053;BME280;63630;50.142;14.076;2022-09-27T13:37:56;95114.81;;;17.83;63.44
75053;BME280;63630;50.142;14.076;2022-09-27T13:40:24;95119.81;;;17.85;63.07
75053;BME280;63630;50.142;14.076;2022-09-27T13:45:27;95112.09;;;17.83;62.93
75053;BME280;63630;50.142;14.076;2022-09-27T13:47:56;95111.38;;;17.86;63.28
75053;BME280;63630;50.142;14.076;2022-09-27T13:50:27;95117.16;;;17.88;63.10
75053;BME280;63630;50.142;14.076;2022-09-27T13:55:48;95124.88;;;17.86;62.95
75053;BME280;63630;50.142;14.076;2022-09-27T13:58:16;95126.41;;;17.87;62.84
75053;BME280;63630;50.142;14.076;2022-09-27T14:00:53;95125.22;;;17.85;62.95
75053;BME280;63630;50.142;14.076;2022-09-27T14:03:27;95134.50;;;17.87;63.12
75053;BME280;63630;50.142;14.076;2022-09-27T14:05:56;95133.72;;;17.87;63.14
75053;BME280;63630;50.142;14.076;2022-09-27T14:08:32;95135.66;;;17.86;63.00
75053;BME280;63630;50.142;14.076;2022-09-27T14:10:59;95142.97;;;17.86;63.15
75053;BME280;63630;50.142;14.076;2022-09-27T14:13:29;95142.16;;;17.85;63.17
75053;BME280;63630;50.142;14.076;2022-09-27T14:15:58;95139.47;;;17.85;63.03
75053;BME280;63630;50.142;14.076;2022-09-27T14:18:26;95154.84;;;17.81;63.25
75053;BME280;63630;50.142;14.076;2022-09-27T14:21:17;95161.00;;;17.82;62.89
75053;BME280;63630;50.142;14.076;2022-09-27T14:23:45;95160.22;;;17.81;62.98
75053;BME280;63630;50.142;14.076;2022-09-27T14:26:21;95168.31;;;17.81;63.19
75053;BME280;63630;50.142;14.076;2022-09-27T14:28:47;95180.59;;;17.78;63.11
75053;BME280;63630;50.142;14.076;2022-09-27T14:33:43;95196.44;;;17.80;63.17
75053;BME280;63630;50.142;14.076;2022-09-27T14:36:31;95208.38;;;17.79;62.82
75053;BME280;63630;50.142;14.076;2022-09-27T14:39:31;95209.50;;;17.78;63.15
75053;BME280;63630;50.142;14.076;2022-09-27T14:41:58;95201.22;;;17.67;62.93
75053;BME280;63630;50.142;14.076;2022-09-27T14:44:24;95228.38;;;17.78;63.18
75053;BME280;63630;50.142;14.076;2022-09-27T14:47:14;95220.19;;;17.74;63.10
75053;BME280;63630;50.142;14.076;2022-09-27T14:52:18;95219.44;;;17.74;63.15
75053;BME280;63630;50.142;14.076;2022-09-27T14:54:54;95210.50;;;17.70;63.35
75053;BME280;63630;50.142;14.076;2022-09-27T14:57:23;95219.81;;;17.72;63.25
75053;BME280;63630;50.142;14.076;2022-09-27T14:59:51;95216.31;;;17.72;63.41
75053;BME280;63630;50.142;14.076;2022-09-27T15:02:19;95214.41;;;17.72;63.22
75053;BME280;63630;50.142;14.076;2022-09-27T15:04:47;95206.38;;;17.76;63.30
75053;BME280;63630;50.142;14.076;2022-09-27T15:07:13;95207.09;;;17.73;63.29
75053;BME280;63630;50.142;14.076;2022-09-27T15:09:44;95196.66;;;17.71;63.20
75053;BME280;63630;50.142;14.076;2022-09-27T15:12:21;95205.94;;;17.74;63.23
75053;BME280;63630;50.142;14.076;2022-09-27T15:14:49;95207.09;;;17.73;63.67
75053;BME280;63630;50.142;14.076;2022-09-27T15:17:19;95212.50;;;17.73;63.24
75053;BME280;63630;50.142;14.076;2022-09-27T15:20:01;95210.56;;;17.73;63.30
75053;BME280;63630;50.142;14.076;2022-09-27T15:28:03;95203.97;;;17.71;63.35
75053;BME280;63630;50.142;14.076;2022-09-27T15:30:39;95222.84;;;17.71;63.28
75053;BME280;63630;50.142;14.076;2022-09-27T15:33:16;95225.53;;;17.71;63.36
75053;BME280;63630;50.142;14.076;2022-09-27T15:36:07;95233.56;;;17.67;63.59
75053;BME280;63630;50.142;14.076;2022-09-27T15:41:16;95240.13;;;17.66;63.56
75053;BME280;63630;50.142;14.076;2022-09-27T15:48:39;95245.44;;;17.63;63.48
75053;BME280;63630;50.142;14.076;2022-09-27T15:51:39;95248.16;;;17.63;63.78
75053;BME280;63630;50.142;14.076;2022-09-27T15:54:05;95251.97;;;17.62;63.64
75053;BME280;63630;50.142;14.076;2022-09-27T15:56:30;95248.50;;;17.61;63.78
75053;BME280;63630;50.142;14.076;2022-09-27T15:58:55;95251.56;;;17.60;63.69
75053;BME280;63630;50.142;14.076;2022-09-27T16:01:20;95256.94;;;17.60;63.69
75053;BME280;63630;50.142;14.076;2022-09-27T16:03:46;95257.66;;;17.57;63.64
75053;BME280;63630;50.142;14.076;2022-09-27T16:06:12;95259.59;;;17.56;63.57
75053;BME280;63630;50.142;14.076;2022-09-27T16:08:39;95263.41;;;17.55;64.01
75053;BME280;63630;50.142;14.076;2022-09-27T16:11:04;95264.97;;;17.56;63.77
75053;BME280;63630;50.142;14.076;2022-09-27T16:13:30;95270.72;;;17.54;63.72
75053;BME280;63630;50.142;14.076;2022-09-27T16:15:55;95266.81;;;17.52;64.14
75053;BME280;63630;50.142;14.076;2022-09-27T16:18:25;95268.72;;;17.51;64.09
75053;BME280;63630;50.142;14.076;2022-09-27T16:20:53;95267.13;;;17.47;64.05